Time;durP1;ratioP1;P1;durP2;ratioP2;P2;SDS_P1;SDS_P2;PMS_P1;PMS_P2;Temp;Humidity;BMP_temperature;BMP_pressure;BME280_temperature;BME280_humidity;BME280_pressure;Samples;Min_cycle;Max_cycle;Signal;HPM_P1;HPM_P2
2022/03/10 00:01:42;;;;;;;18.83;11.93;;;6.50;53.60;;;;;;5113228;28;20035;-74
2022/03/10 00:04:07;;;;;;;20.20;11.82;;;6.40;53.80;;;;;;5113870;28;20107;-74
2022/03/10 00:06:33;;;;;;;22.70;12.13;;;6.40;53.90;;;;;;5113487;28;20030;-76
2022/03/10 00:08:58;;;;;;;22.75;11.15;;;6.30;54.20;;;;;;5111683;28;20027;-76
2022/03/10 00:11:24;;;;;;;19.00;11.15;;;6.30;54.40;;;;;;5112677;28;20384;-76
2022/03/10 00:13:50;;;;;;;18.13;11.25;;;6.20;54.50;;;;;;5113087;27;20032;-74
2022/03/10 00:16:16;;;;;;;18.88;11.40;;;6.10;54.60;;;;;;5112321;28;20103;-75
2022/03/10 00:18:41;;;;;;;17.30;11.10;;;6.10;54.70;;;;;;5112912;28;20425;-77
2022/03/10 00:21:07;;;;;;;21.23;10.27;;;6.00;55.40;;;;;;5113201;28;20492;-76
2022/03/10 00:23:33;;;;;;;16.55;10.75;;;6.00;55.70;;;;;;5113334;28;20055;-76
2022/03/10 00:25:58;;;;;;;17.05;10.82;;;5.90;55.70;;;;;;5111383;28;20472;-76
2022/03/10 00:28:24;;;;;;;19.38;11.15;;;5.90;55.80;;;;;;5113154;28;20107;-76
2022/03/10 00:30:50;;;;;;;17.67;10.75;;;5.90;56.00;;;;;;5112801;28;20165;-76
2022/03/10 00:33:15;;;;;;;18.42;11.15;;;5.80;56.20;;;;;;5111998;28;20026;-76
2022/03/10 00:35:41;;;;;;;19.40;11.38;;;5.80;56.20;;;;;;5112502;28;20024;-76
2022/03/10 00:38:07;;;;;;;20.38;10.82;;;5.80;56.30;;;;;;5113147;28;20026;-76
2022/03/10 00:40:32;;;;;;;18.55;11.73;;;5.80;56.30;;;;;;5113258;28;20465;-75
2022/03/10 00:42:58;;;;;;;16.75;10.27;;;5.70;56.30;;;;;;5112485;28;20115;-75
2022/03/10 00:45:27;;;;;;;16.17;10.95;;;5.70;56.40;;;;;;5113035;28;20020;-74
2022/03/10 00:47:54;;;;;;;22.27;11.85;;;5.60;56.60;;;;;;5112425;27;20098;-74
2022/03/10 00:50:26;;;;;;;18.40;10.05;;;5.60;56.60;;;;;;5113156;28;20047;-76
2022/03/10 00:52:51;;;;;;;17.10;11.57;;;5.50;56.80;;;;;;5111057;28;20040;-76
2022/03/10 00:55:18;;;;;;;18.80;10.88;;;5.50;57.00;;;;;;5112879;28;20039;-76
2022/03/10 00:57:44;;;;;;;17.08;11.70;;;5.50;57.80;;;;;;5112368;28;20024;-77
2022/03/10 01:00:10;;;;;;;18.52;10.90;;;5.40;57.10;;;;;;5112904;28;20052;-75
2022/03/10 01:02:36;;;;;;;17.20;11.40;;;5.40;57.40;;;;;;5111591;28;20074;-76
2022/03/10 01:05:04;;;;;;;19.48;11.40;;;5.40;57.40;;;;;;5112212;28;20468;-76
2022/03/10 01:07:29;;;;;;;17.13;11.10;;;5.30;57.60;;;;;;5112904;28;20016;-76
2022/03/10 01:09:55;;;;;;;17.27;10.82;;;5.30;57.60;;;;;;5111743;28;20512;-76
2022/03/10 01:12:21;;;;;;;18.45;11.23;;;5.30;57.80;;;;;;5112416;28;20472;-76
2022/03/10 01:14:46;;;;;;;17.88;10.63;;;5.20;57.80;;;;;;5112138;28;20464;-76
2022/03/10 01:17:12;;;;;;;20.80;11.60;;;5.20;58.00;;;;;;5112750;28;20380;-76
2022/03/10 01:19:38;;;;;;;21.33;11.55;;;5.20;58.20;;;;;;5112723;28;20467;-76
2022/03/10 01:22:03;;;;;;;18.88;11.38;;;5.10;58.40;;;;;;5112833;28;20440;-76
2022/03/10 01:24:29;;;;;;;19.13;11.77;;;5.10;58.60;;;;;;5116669;28;20028;-76
2022/03/10 01:27:13;;;;;;;17.48;11.15;;;5.10;58.70;;;;;;5116027;28;20028;-76
2022/03/10 01:29:39;;;;;;;16.83;11.30;;;5.00;58.60;;;;;;5116640;28;20102;-76
2022/03/10 01:32:05;;;;;;;17.63;10.98;;;5.00;58.80;;;;;;5114764;28;20421;-76
2022/03/10 01:34:31;;;;;;;16.55;10.88;;;5.00;59.00;;;;;;5116875;27;20027;-75
2022/03/10 01:36:58;;;;;;;18.50;11.30;;;5.00;59.10;;;;;;5119622;28;20029;-77
2022/03/10 01:39:24;;;;;;;20.35;11.25;;;4.90;59.20;;;;;;5125405;28;20031;-76
2022/03/10 01:41:50;;;;;;;18.75;11.70;;;4.90;59.20;;;;;;5122906;28;20111;-77
2022/03/10 01:44:16;;;;;;;16.55;11.20;;;4.80;59.30;;;;;;5119219;28;20062;-77
2022/03/10 01:46:41;;;;;;;18.27;11.30;;;4.80;59.40;;;;;;5115750;28;20032;-78
2022/03/10 01:49:07;;;;;;;17.95;10.52;;;4.80;59.50;;;;;;5117549;28;20030;-76
2022/03/10 01:51:34;;;;;;;17.08;11.18;;;4.80;59.60;;;;;;5118514;28;20055;-76
2022/03/10 01:54:01;;;;;;;18.77;11.73;;;4.80;59.70;;;;;;5120145;28;20372;-76
2022/03/10 01:56:27;;;;;;;18.70;11.88;;;4.80;59.80;;;;;;5116868;28;20127;-76
2022/03/10 01:58:54;;;;;;;18.90;11.57;;;4.80;59.90;;;;;;5115992;28;20438;-75
2022/03/10 02:01:20;;;;;;;17.42;11.38;;;4.70;59.90;;;;;;5117067;28;20072;-75
2022/03/10 02:03:46;;;;;;;21.83;12.05;;;4.70;59.90;;;;;;5115740;28;20023;-77
2022/03/10 02:06:13;;;;;;;19.48;11.75;;;4.70;59.90;;;;;;5116015;28;20028;-77
2022/03/10 02:11:24;;;;;;;21.33;12.40;;;4.70;60.20;;;;;;5116182;28;20042;-77
2022/03/10 02:13:49;;;;;;;18.38;11.45;;;4.70;60.30;;;;;;5115606;28;20080;-77
2022/03/10 02:19:01;;;;;;;19.70;11.18;;;4.60;60.40;;;;;;5115503;28;20537;-75
2022/03/10 02:21:27;;;;;;;21.08;11.07;;;4.60;60.60;;;;;;5115965;28;20057;-75
2022/03/10 02:23:53;;;;;;;17.08;11.82;;;4.60;60.60;;;;;;5114758;28;20054;-75
2022/03/10 02:26:19;;;;;;;19.17;12.38;;;4.60;60.70;;;;;;5115935;28;20101;-76
2022/03/10 02:28:44;;;;;;;21.38;11.57;;;4.50;60.70;;;;;;5115353;27;20456;-78
2022/03/10 02:31:11;;;;;;;20.25;11.43;;;4.50;60.90;;;;;;5115819;28;20112;-75
2022/03/10 02:33:37;;;;;;;19.27;11.85;;;4.50;61.10;;;;;;5114614;28;20050;-75
2022/03/10 02:36:04;;;;;;;22.13;11.90;;;4.40;61.00;;;;;;5114760;28;20365;-76
2022/03/10 02:38:31;;;;;;;17.90;11.88;;;4.40;61.10;;;;;;5115554;27;20019;-76
2022/03/10 02:40:56;;;;;;;18.92;11.95;;;4.40;61.10;;;;;;5115027;27;20019;-76
2022/03/10 02:43:22;;;;;;;21.30;11.88;;;4.40;61.30;;;;;;5116343;27;20038;-75
2022/03/10 02:45:49;;;;;;;25.35;12.80;;;4.40;61.30;;;;;;5131791;27;20024;-76
2022/03/10 02:48:15;;;;;;;21.23;12.02;;;4.30;61.50;;;;;;5114933;28;20020;-75
2022/03/10 02:50:41;;;;;;;22.98;12.35;;;4.30;61.60;;;;;;5115355;28;20019;-76
2022/03/10 02:53:07;;;;;;;20.85;11.48;;;4.30;61.80;;;;;;5114469;27;20472;-76
2022/03/10 02:55:33;;;;;;;20.83;12.35;;;4.20;61.90;;;;;;5115126;28;20051;-76
2022/03/10 02:57:59;;;;;;;20.70;12.13;;;4.20;62.00;;;;;;5114662;28;20094;-76
2022/03/10 03:00:24;;;;;;;21.52;11.75;;;4.20;62.10;;;;;;5115228;28;20467;-76
2022/03/10 03:02:50;;;;;;;20.00;11.65;;;4.20;62.30;;;;;;5114339;28;20104;-76
2022/03/10 03:05:16;;;;;;;21.00;11.55;;;4.20;62.20;;;;;;5115128;28;20047;-76
2022/03/10 03:07:43;;;;;;;25.55;11.77;;;4.10;62.30;;;;;;5115077;28;20110;-77
2022/03/10 03:10:10;;;;;;;22.00;11.70;;;4.10;62.40;;;;;;5114215;28;20099;-75
2022/03/10 03:12:47;;;;;;;19.33;11.73;;;4.10;62.30;;;;;;5114565;28;20034;-75
2022/03/10 03:15:13;;;;;;;20.33;11.50;;;4.20;62.60;;;;;;5114589;28;20028;-76
2022/03/10 03:17:38;;;;;;;21.05;11.52;;;4.20;62.50;;;;;;5114917;27;20039;-76
2022/03/10 03:20:23;;;;;;;20.05;11.32;;;4.20;62.50;;;;;;5114086;28;20028;-75
2022/03/10 03:22:49;;;;;;;22.65;11.27;;;4.10;62.40;;;;;;5113726;28;20027;-76
2022/03/10 03:25:15;;;;;;;19.40;11.95;;;4.10;62.50;;;;;;5114364;28;20026;-76
2022/03/10 03:27:44;;;;;;;16.85;11.45;;;4.10;62.50;;;;;;5110775;28;20377;-76
2022/03/10 03:30:11;;;;;;;19.77;11.40;;;4.10;62.80;;;;;;5113534;28;20082;-75
2022/03/10 03:32:36;;;;;;;18.20;11.75;;;4.10;62.90;;;;;;5113761;28;20040;-75
2022/03/10 03:35:02;;;;;;;19.35;11.73;;;4.10;62.90;;;;;;5113441;28;20378;-76
2022/03/10 03:37:28;;;;;;;20.35;11.45;;;4.10;62.90;;;;;;5114126;28;20020;-75
2022/03/10 03:39:54;;;;;;;19.15;11.88;;;4.10;62.90;;;;;;5113267;28;20042;-74
2022/03/10 03:42:19;;;;;;;20.77;12.15;;;4.10;62.90;;;;;;5113567;28;20027;-78
2022/03/10 03:44:45;;;;;;;19.60;11.32;;;4.00;63.00;;;;;;5113802;28;20051;-75
2022/03/10 03:47:11;;;;;;;18.85;11.48;;;4.00;63.20;;;;;;5113372;28;20032;-75
2022/03/10 03:49:36;;;;;;;17.48;11.70;;;4.00;63.80;;;;;;5113718;28;20035;-76
2022/03/10 03:52:02;;;;;;;21.40;11.55;;;3.90;63.50;;;;;;5111893;28;20571;-76
2022/03/10 03:54:29;;;;;;;22.15;12.57;;;3.90;63.50;;;;;;5113382;28;20032;-76
2022/03/10 03:56:54;;;;;;;19.30;11.48;;;3.90;63.60;;;;;;5113478;28;20096;-76
2022/03/10 03:59:20;;;;;;;20.05;12.43;;;3.80;63.70;;;;;;5113834;28;20464;-75
2022/03/10 04:01:46;;;;;;;24.15;12.68;;;3.80;63.90;;;;;;5113476;28;20460;-75
2022/03/10 04:04:12;;;;;;;22.30;11.63;;;3.80;64.00;;;;;;5113174;28;20032;-75
2022/03/10 04:06:37;;;;;;;19.65;11.40;;;3.80;64.10;;;;;;5112271;28;20069;-75
2022/03/10 04:09:03;;;;;;;19.98;11.73;;;3.80;64.00;;;;;;5113038;28;20043;-76
2022/03/10 04:11:29;;;;;;;17.85;12.27;;;3.80;64.30;;;;;;5113433;28;20447;-76
2022/03/10 04:13:54;;;;;;;19.90;11.68;;;3.80;64.30;;;;;;5112828;28;20137;-75
2022/03/10 04:16:20;;;;;;;19.85;11.65;;;3.80;64.30;;;;;;5113418;28;20028;-77
2022/03/10 04:18:46;;;;;;;18.85;12.07;;;3.80;64.30;;;;;;5113438;28;20023;-75
2022/03/10 04:21:12;;;;;;;20.55;11.88;;;3.80;64.50;;;;;;5113113;28;20507;-76
2022/03/10 04:23:37;;;;;;;20.77;12.43;;;3.70;64.50;;;;;;5113744;28;20092;-76
2022/03/10 04:26:03;;;;;;;21.85;12.20;;;3.70;64.60;;;;;;5112766;28;20440;-76
2022/03/10 04:28:29;;;;;;;23.83;13.13;;;3.70;64.70;;;;;;5113115;28;20019;-75
2022/03/10 04:30:54;;;;;;;17.55;11.45;;;3.60;64.70;;;;;;5112753;28;20027;-75
2022/03/10 04:33:20;;;;;;;17.70;11.88;;;3.70;65.00;;;;;;5113544;28;20024;-74
2022/03/10 04:35:46;;;;;;;17.50;11.60;;;3.60;65.00;;;;;;5113317;28;20045;-75
2022/03/10 04:38:11;;;;;;;19.83;12.27;;;3.60;65.00;;;;;;5112895;28;20035;-75
2022/03/10 04:40:37;;;;;;;21.27;12.02;;;3.60;65.10;;;;;;5105380;28;20462;-76
2022/03/10 04:43:03;;;;;;;19.55;12.30;;;3.60;65.00;;;;;;5092350;28;20111;-76
2022/03/10 04:45:29;;;;;;;21.48;12.30;;;3.60;65.10;;;;;;5091317;28;20024;-75
2022/03/10 04:47:55;;;;;;;21.65;11.63;;;3.60;65.20;;;;;;5092280;28;20078;-76
2022/03/10 04:50:20;;;;;;;21.05;11.18;;;3.60;65.30;;;;;;5092414;28;20102;-77
2022/03/10 04:52:46;;;;;;;19.65;11.90;;;3.60;65.40;;;;;;5092400;28;20040;-76
2022/03/10 04:55:13;;;;;;;20.42;12.20;;;3.60;65.40;;;;;;5091469;28;20048;-76
2022/03/10 04:57:39;;;;;;;19.67;11.77;;;3.60;65.60;;;;;;5092375;28;20109;-76
2022/03/10 05:00:10;;;;;;;21.65;12.18;;;3.60;65.40;;;;;;5092104;28;20035;-75
2022/03/10 05:02:40;;;;;;;18.50;11.80;;;3.60;65.50;;;;;;5092668;28;20028;-75
2022/03/10 05:05:07;;;;;;;20.05;11.88;;;3.60;65.20;;;;;;5091614;28;20020;-75
2022/03/10 05:07:33;;;;;;;18.73;11.52;;;3.60;65.30;;;;;;5092301;28;20028;-77
2022/03/10 05:09:59;;;;;;;17.98;11.43;;;3.60;65.30;;;;;;5091955;28;20028;-75
2022/03/10 05:12:25;;;;;;;19.10;11.93;;;3.60;65.20;;;;;;5092588;28;20376;-75
2022/03/10 05:17:35;;;;;;;17.67;11.20;;;3.60;65.10;;;;;;5092481;28;20039;-75
2022/03/10 05:20:01;;;;;;;26.20;12.93;;;3.60;65.50;;;;;;5090314;28;20377;-75
2022/03/10 05:22:45;;;;;;;22.25;11.50;;;3.60;65.40;;;;;;5111870;28;20023;-75
2022/03/10 05:25:12;;;;;;;19.40;11.60;;;3.60;65.40;;;;;;5112655;28;20026;-75
2022/03/10 05:27:37;;;;;;;22.15;11.45;;;3.60;65.40;;;;;;5112764;28;20030;-76
2022/03/10 05:30:04;;;;;;;19.13;12.15;;;3.60;65.40;;;;;;5112441;28;20140;-76
2022/03/10 05:32:30;;;;;;;17.05;11.20;;;3.70;65.40;;;;;;5112377;28;20032;-76
2022/03/10 05:34:56;;;;;;;20.90;12.35;;;3.70;65.30;;;;;;5112610;28;20027;-75
2022/03/10 05:37:22;;;;;;;20.58;11.63;;;3.70;65.30;;;;;;5112593;28;20054;-76
2022/03/10 05:39:48;;;;;;;19.58;12.45;;;3.70;65.10;;;;;;5111264;28;20376;-75
2022/03/10 05:42:14;;;;;;;21.40;11.43;;;3.70;64.90;;;;;;5112010;28;20024;-75
2022/03/10 05:44:39;;;;;;;20.83;12.55;;;3.70;65.10;;;;;;5112186;28;20020;-75
2022/03/10 05:47:06;;;;;;;22.75;12.05;;;3.70;65.10;;;;;;5111847;28;20031;-76
2022/03/10 05:49:32;;;;;;;23.35;11.48;;;3.70;65.20;;;;;;5112595;28;20024;-76
2022/03/10 05:51:58;;;;;;;19.92;13.07;;;3.80;65.90;;;;;;5112274;28;20031;-79
2022/03/10 05:54:23;;;;;;;20.10;11.70;;;3.80;66.20;;;;;;5110582;28;20024;-76
2022/03/10 05:56:49;;;;;;;19.67;11.65;;;3.80;65.50;;;;;;5112234;28;20059;-76
2022/03/10 05:59:14;;;;;;;21.52;12.90;;;3.80;65.40;;;;;;5111982;28;20031;-76
2022/03/10 06:01:40;;;;;;;20.30;12.63;;;3.90;65.70;;;;;;5111359;28;20031;-76
2022/03/10 06:04:06;;;;;;;23.23;12.32;;;3.90;65.50;;;;;;5111726;28;20030;-76
2022/03/10 06:06:31;;;;;;;19.42;11.30;;;3.90;65.20;;;;;;5112469;28;20027;-75
2022/03/10 06:08:57;;;;;;;21.58;11.77;;;4.00;65.10;;;;;;5112636;28;20026;-76
2022/03/10 06:11:23;;;;;;;24.77;13.00;;;4.00;65.00;;;;;;5115634;28;20032;-76
2022/03/10 06:13:48;;;;;;;28.77;13.77;;;4.10;64.90;;;;;;5116227;28;20106;-76
2022/03/10 06:16:14;;;;;;;21.92;12.70;;;4.10;64.90;;;;;;5114362;28;20218;-76
2022/03/10 06:18:40;;;;;;;21.35;13.32;;;4.20;65.00;;;;;;5115948;28;20028;-75
2022/03/10 06:21:06;;;;;;;19.13;12.80;;;4.20;64.50;;;;;;5115574;28;20024;-76
2022/03/10 06:23:32;;;;;;;20.30;12.57;;;4.30;64.30;;;;;;5117834;28;20032;-75
2022/03/10 06:25:57;;;;;;;20.52;13.30;;;4.40;64.00;;;;;;5116055;28;20028;-76
2022/03/10 06:28:23;;;;;;;23.80;12.85;;;4.40;63.90;;;;;;5115415;28;20145;-75
2022/03/10 06:30:49;;;;;;;30.58;14.10;;;4.50;63.70;;;;;;5115584;28;20028;-75
2022/03/10 06:33:14;;;;;;;26.63;13.85;;;4.60;63.30;;;;;;5115018;28;20043;-76
2022/03/10 06:35:40;;;;;;;19.80;12.13;;;4.60;63.20;;;;;;5115734;28;20034;-75
2022/03/10 06:38:06;;;;;;;22.63;12.65;;;4.70;63.20;;;;;;5115125;28;20123;-75
2022/03/10 06:40:31;;;;;;;24.70;12.98;;;4.80;63.00;;;;;;5115759;28;20073;-74
2022/03/10 06:42:57;;;;;;;26.08;13.05;;;4.90;62.70;;;;;;5115571;28;20035;-75
2022/03/10 06:45:23;;;;;;;29.80;13.27;;;4.90;62.50;;;;;;5113631;28;20023;-75
2022/03/10 06:47:48;;;;;;;22.30;12.75;;;5.00;62.00;;;;;;5115328;28;20027;-75
2022/03/10 06:50:14;;;;;;;24.80;12.95;;;5.00;62.10;;;;;;5113378;28;20023;-75
2022/03/10 06:52:40;;;;;;;27.33;13.55;;;5.00;61.90;;;;;;5115225;28;20031;-76
2022/03/10 06:55:06;;;;;;;30.73;13.25;;;5.10;61.60;;;;;;5114548;28;20047;-74
2022/03/10 06:57:31;;;;;;;27.85;13.00;;;5.10;61.60;;;;;;5115038;28;20081;-76
2022/03/10 06:59:57;;;;;;;22.58;13.40;;;5.20;61.60;;;;;;5115102;28;20403;-75
2022/03/10 07:02:23;;;;;;;20.00;12.65;;;5.20;61.80;;;;;;5114476;28;20035;-76
2022/03/10 07:04:49;;;;;;;20.23;13.23;;;5.20;62.00;;;;;;5115072;28;20078;-75
2022/03/10 07:07:15;;;;;;;27.88;13.05;;;5.30;62.30;;;;;;5114561;28;20051;-75
2022/03/10 07:09:41;;;;;;;23.40;13.70;;;5.40;62.50;;;;;;5118119;28;20388;-75
2022/03/10 07:12:09;;;;;;;24.55;13.60;;;5.50;62.10;;;;;;5128325;28;20035;-76
2022/03/10 07:14:34;;;;;;;20.88;13.57;;;5.60;61.90;;;;;;5125730;28;20042;-76
2022/03/10 07:17:00;;;;;;;30.50;13.48;;;5.80;61.50;;;;;;5117219;28;20456;-76
2022/03/10 07:19:26;;;;;;;29.23;15.52;;;5.90;61.60;;;;;;5118341;28;20059;-75
2022/03/10 07:21:51;;;;;;;32.95;16.20;;;6.10;61.30;;;;;;5120260;28;20024;-75
2022/03/10 07:24:17;;;;;;;34.10;18.13;;;6.20;61.20;;;;;;5115898;28;20023;-76
2022/03/10 07:26:43;;;;;;;38.80;19.55;;;6.30;62.00;;;;;;5115632;28;20038;-76
2022/03/10 07:29:09;;;;;;;34.78;18.98;;;6.50;62.60;;;;;;5114019;28;20476;-76
2022/03/10 07:31:34;;;;;;;28.85;18.90;;;6.60;62.70;;;;;;5114548;28;20126;-76
2022/03/10 07:34:00;;;;;;;32.75;20.35;;;6.80;62.90;;;;;;5114335;28;20085;-75
2022/03/10 07:36:26;;;;;;;31.25;20.92;;;6.90;62.80;;;;;;5114132;28;20589;-76
2022/03/10 07:38:52;;;;;;;32.15;21.83;;;7.00;62.30;;;;;;5114677;28;20059;-76
2022/03/10 07:41:18;;;;;;;31.67;21.38;;;7.00;62.30;;;;;;5113772;28;20106;-75
2022/03/10 07:43:44;;;;;;;34.90;21.40;;;7.10;61.90;;;;;;5114356;28;20328;-75
2022/03/10 07:46:09;;;;;;;35.97;22.52;;;7.10;61.70;;;;;;5113923;28;20036;-76
2022/03/10 07:48:35;;;;;;;37.47;21.83;;;7.30;61.60;;;;;;5114355;28;20107;-75
2022/03/10 07:51:01;;;;;;;33.40;22.33;;;7.50;61.50;;;;;;5113129;28;20028;-76
2022/03/10 07:53:27;;;;;;;32.97;21.10;;;7.70;60.90;;;;;;5112032;28;20468;-76
2022/03/10 07:55:55;;;;;;;33.67;21.63;;;7.90;59.60;;;;;;5113837;28;20089;-75
2022/03/10 07:58:23;;;;;;;36.28;22.50;;;8.10;60.00;;;;;;5113744;28;20024;-76
2022/03/10 08:00:49;;;;;;;31.88;21.48;;;8.30;59.00;;;;;;5114135;28;20059;-76
2022/03/10 08:03:15;;;;;;;35.20;20.60;;;8.40;58.00;;;;;;5113426;28;20032;-76
2022/03/10 08:05:43;;;;;;;29.08;19.23;;;8.60;57.70;;;;;;5114011;28;20075;-75
2022/03/10 08:08:08;;;;;;;27.35;18.05;;;8.70;56.70;;;;;;5113533;28;20034;-78
2022/03/10 08:10:34;;;;;;;29.70;18.38;;;8.80;55.80;;;;;;5114181;28;20031;-75
2022/03/10 08:13:00;;;;;;;33.90;19.50;;;8.90;55.30;;;;;;5113522;28;20035;-76
2022/03/10 08:15:26;;;;;;;30.95;19.90;;;8.90;54.90;;;;;;5113267;28;20449;-76
2022/03/10 08:17:52;;;;;;;30.10;18.83;;;9.10;54.00;;;;;;5113992;28;20049;-76
2022/03/10 08:20:18;;;;;;;28.20;18.35;;;9.20;54.70;;;;;;5112972;28;20026;-75
2022/03/10 08:22:43;;;;;;;30.63;19.17;;;10.80;54.50;;;;;;5113569;28;20439;-76
2022/03/10 08:25:09;;;;;;;28.20;19.10;;;11.10;49.10;;;;;;5112008;28;20479;-80
2022/03/10 08:27:35;;;;;;;29.35;19.38;;;10.50;49.20;;;;;;5113620;28;20028;-78
2022/03/10 08:30:01;;;;;;;30.65;19.42;;;10.30;50.00;;;;;;5114395;28;20341;-77
2022/03/10 08:32:28;;;;;;;32.45;19.90;;;10.20;50.70;;;;;;5118910;28;20031;-80
2022/03/10 08:34:53;;;;;;;28.08;19.55;;;10.10;50.70;;;;;;5121467;28;20124;-78
2022/03/10 08:37:19;;;;;;;29.45;18.75;;;9.90;50.60;;;;;;5119977;28;20058;-79
2022/03/10 08:39:45;;;;;;;26.88;18.88;;;9.80;51.00;;;;;;5120235;28;20058;-79
2022/03/10 08:42:11;;;;;;;28.95;20.38;;;9.70;50.90;;;;;;5113148;28;20445;-79
2022/03/10 08:44:37;;;;;;;28.10;18.52;;;9.70;51.10;;;;;;5113476;28;20027;-79
2022/03/10 08:47:03;;;;;;;29.45;19.33;;;9.80;52.20;;;;;;5113606;28;20103;-78
2022/03/10 08:49:29;;;;;;;33.75;20.48;;;9.80;50.90;;;;;;5112796;28;20032;-77
2022/03/10 08:51:55;;;;;;;28.30;19.40;;;9.90;51.40;;;;;;5113656;28;20042;-79
2022/03/10 08:54:21;;;;;;;27.45;19.05;;;9.80;50.20;;;;;;5112760;28;20019;-78
2022/03/10 08:56:47;;;;;;;26.65;18.85;;;9.70;50.90;;;;;;5113600;28;20051;-78
2022/03/10 08:59:13;;;;;;;28.15;18.75;;;9.50;51.00;;;;;;5112334;28;20039;-77
2022/03/10 09:01:39;;;;;;;24.77;19.08;;;9.40;51.00;;;;;;5113370;28;20035;-79
2022/03/10 09:04:05;;;;;;;24.45;18.23;;;9.30;51.70;;;;;;5114391;28;20050;-78
2022/03/10 09:06:32;;;;;;;27.38;18.30;;;9.20;51.50;;;;;;5112569;28;20020;-78
2022/03/10 09:08:57;;;;;;;29.75;18.98;;;9.20;52.10;;;;;;5112896;28;20381;-79
2022/03/10 09:11:24;;;;;;;29.90;17.63;;;9.20;51.60;;;;;;5111516;28;20020;-77
2022/03/10 09:13:49;;;;;;;28.00;18.85;;;9.20;51.10;;;;;;5111932;28;20034;-78
2022/03/10 09:16:19;;;;;;;24.75;18.48;;;9.10;51.00;;;;;;5111963;28;20099;-77
2022/03/10 09:18:45;;;;;;;24.77;18.63;;;8.90;51.30;;;;;;5111536;28;20076;-78
2022/03/10 09:21:15;;;;;;;26.95;18.50;;;8.90;52.00;;;;;;5111180;28;20024;-79
2022/03/10 09:23:41;;;;;;;28.10;20.17;;;8.80;52.20;;;;;;5112908;28;20024;-77
2022/03/10 09:26:06;;;;;;;31.05;19.35;;;8.80;52.60;;;;;;5112469;28;20132;-77
2022/03/10 09:28:32;;;;;;;23.70;17.63;;;8.80;52.70;;;;;;5112149;28;20035;-77
2022/03/10 09:30:58;;;;;;;26.70;18.02;;;8.80;52.50;;;;;;5112314;28;20082;-77
2022/03/10 09:33:25;;;;;;;24.48;17.42;;;8.80;52.50;;;;;;5112122;28;20042;-79
2022/03/10 09:35:51;;;;;;;23.55;16.25;;;8.80;52.10;;;;;;5111291;28;20487;-79
2022/03/10 09:38:17;;;;;;;24.17;15.80;;;8.70;51.40;;;;;;5111850;28;20024;-79
2022/03/10 09:40:43;;;;;;;23.70;15.75;;;8.70;51.20;;;;;;5113548;28;20027;-78
2022/03/10 09:43:10;;;;;;;22.45;14.68;;;8.80;51.20;;;;;;5113176;28;20023;-78
2022/03/10 09:45:37;;;;;;;21.80;15.82;;;8.90;50.80;;;;;;5114744;28;20122;-79
2022/03/10 09:48:03;;;;;;;21.02;14.50;;;8.90;50.00;;;;;;5116804;28;20034;-78
2022/03/10 09:50:29;;;;;;;23.13;14.73;;;9.00;50.00;;;;;;5115742;28;20062;-78
2022/03/10 09:52:55;;;;;;;24.42;15.48;;;9.00;49.50;;;;;;5114929;28;20477;-78
2022/03/10 09:55:21;;;;;;;20.90;15.38;;;9.00;49.80;;;;;;5115775;28;20046;-78
2022/03/10 09:57:48;;;;;;;21.95;14.68;;;9.20;50.00;;;;;;5116184;28;20072;-78
2022/03/10 10:00:16;;;;;;;18.33;14.45;;;9.30;49.10;;;;;;5115821;28;20027;-78
2022/03/10 10:02:44;;;;;;;20.30;14.43;;;9.40;48.50;;;;;;5116586;28;20088;-78
2022/03/10 10:05:23;;;;;;;19.92;14.38;;;9.40;48.50;;;;;;5116171;28;20020;-78
2022/03/10 10:08:17;;;;;;;19.65;14.55;;;9.40;48.10;;;;;;5116174;28;20114;-78
2022/03/10 10:10:45;;;;;;;19.42;14.25;;;9.40;48.40;;;;;;5116451;28;20035;-77
2022/03/10 10:13:26;;;;;;;19.55;14.50;;;9.40;48.50;;;;;;5116065;28;20042;-78
2022/03/10 10:16:01;;;;;;;19.83;13.70;;;9.40;48.80;;;;;;5116005;28;20084;-78
2022/03/10 10:18:28;;;;;;;21.55;14.23;;;9.40;47.30;;;;;;5115581;27;20027;-79
2022/03/10 10:20:55;;;;;;;17.65;13.40;;;9.30;47.10;;;;;;5116047;28;20023;-79
2022/03/10 10:23:29;;;;;;;21.00;12.82;;;9.40;47.50;;;;;;5114927;27;20039;-77
2022/03/10 10:26:00;;;;;;;18.08;13.13;;;9.30;47.40;;;;;;5115621;28;20098;-78
2022/03/10 10:28:31;;;;;;;18.63;12.52;;;9.30;47.10;;;;;;5114873;28;20026;-79
2022/03/10 10:31:03;;;;;;;17.13;12.20;;;9.30;47.20;;;;;;5115878;28;20027;-78
2022/03/10 10:33:31;;;;;;;18.42;12.15;;;9.30;47.00;;;;;;5113923;28;20127;-79
2022/03/10 10:36:24;;;;;;;20.95;13.73;;;9.30;46.60;;;;;;5114631;28;20023;-77
2022/03/10 10:38:51;;;;;;;17.67;12.77;;;9.40;46.60;;;;;;5115941;28;20024;-78
2022/03/10 10:41:18;;;;;;;21.33;13.23;;;9.50;46.30;;;;;;5115388;28;20023;-78
2022/03/10 10:43:49;;;;;;;18.10;12.48;;;9.60;46.20;;;;;;5115698;28;20088;-79
2022/03/10 10:46:25;;;;;;;19.40;12.80;;;9.70;46.00;;;;;;5115259;28;20456;-79
2022/03/10 10:48:50;;;;;;;19.67;12.57;;;9.80;45.30;;;;;;5115440;28;20111;-78
2022/03/10 10:51:29;;;;;;;19.65;13.55;;;9.90;45.10;;;;;;5115457;28;20532;-78
2022/03/10 10:53:55;;;;;;;18.88;13.80;;;10.00;44.70;;;;;;5114006;28;20023;-77
2022/03/10 10:56:22;;;;;;;24.77;13.57;;;10.10;45.10;;;;;;5113837;28;20047;-78
2022/03/10 10:58:48;;;;;;;17.88;13.85;;;10.20;44.20;;;;;;5115116;28;20035;-78
2022/03/10 11:01:35;;;;;;;20.73;14.50;;;10.20;44.20;;;;;;5114802;28;20020;-78
2022/03/10 11:04:03;;;;;;;17.73;13.38;;;10.10;44.00;;;;;;5115000;28;20541;-78
2022/03/10 11:06:29;;;;;;;17.08;13.63;;;10.10;44.30;;;;;;5114200;28;20089;-78
2022/03/10 11:08:55;;;;;;;20.80;14.35;;;10.00;43.50;;;;;;5115110;28;20095;-79
2022/03/10 11:11:21;;;;;;;19.77;13.68;;;9.90;44.10;;;;;;5113624;28;20062;-78
2022/03/10 11:13:48;;;;;;;19.48;13.77;;;9.80;43.70;;;;;;5114789;28;20058;-78
2022/03/10 11:16:16;;;;;;;20.17;14.48;;;9.80;44.40;;;;;;5114695;28;20437;-78
2022/03/10 11:18:48;;;;;;;18.98;13.27;;;9.80;43.90;;;;;;5114097;28;20039;-77
2022/03/10 11:21:37;;;;;;;18.67;13.50;;;9.70;44.20;;;;;;5114613;28;20032;-78
2022/03/10 11:24:21;;;;;;;17.65;13.07;;;9.70;44.20;;;;;;5113248;28;20472;-78
2022/03/10 11:26:58;;;;;;;18.02;14.02;;;9.70;44.30;;;;;;5114355;28;20058;-78
2022/03/10 11:29:26;;;;;;;15.60;12.55;;;9.80;44.40;;;;;;5113885;28;20035;-78
2022/03/10 11:31:54;;;;;;;16.35;12.63;;;9.80;43.80;;;;;;5114776;28;20036;-78
2022/03/10 11:34:46;;;;;;;19.27;12.32;;;9.80;43.50;;;;;;5114359;28;20472;-78
2022/03/10 11:37:13;;;;;;;17.42;11.52;;;9.80;42.90;;;;;;5114271;28;20024;-78
2022/03/10 11:39:55;;;;;;;16.08;12.25;;;9.80;43.20;;;;;;5112471;28;20083;-78
2022/03/10 11:42:29;;;;;;;16.23;12.50;;;9.90;43.30;;;;;;5114050;28;20380;-79
2022/03/10 11:45:05;;;;;;;16.38;12.43;;;10.00;42.90;;;;;;5114236;28;20027;-77
2022/03/10 11:47:31;;;;;;;17.95;12.35;;;10.00;42.10;;;;;;5113680;28;20058;-77
2022/03/10 11:49:57;;;;;;;16.45;12.13;;;9.90;41.50;;;;;;5113963;28;20067;-78
2022/03/10 11:55:13;;;;;;;14.50;10.25;;;9.90;41.90;;;;;;5114207;28;20098;-78
2022/03/10 11:57:55;;;;;;;14.15;9.88;;;9.90;39.90;;;;;;5113543;28;20016;-78
2022/03/10 12:00:44;;;;;;;11.45;9.10;;;10.00;39.60;;;;;;5114167;28;20030;-77
2022/03/10 12:03:10;;;;;;;12.60;8.30;;;10.00;39.30;;;;;;5114425;27;20043;-78
2022/03/10 12:05:56;;;;;;;14.98;8.65;;;10.00;38.90;;;;;;5114664;28;20024;-78
2022/03/10 12:08:23;;;;;;;10.95;8.68;;;10.00;37.90;;;;;;5116350;28;20405;-77
2022/03/10 12:10:49;;;;;;;11.18;7.68;;;10.10;38.60;;;;;;5117171;28;20015;-75
2022/03/10 12:13:28;;;;;;;11.55;7.97;;;10.20;37.00;;;;;;5121765;28;20061;-78
2022/03/10 12:15:55;;;;;;;10.57;8.05;;;10.30;36.40;;;;;;5124337;28;20032;-78
2022/03/10 12:18:24;;;;;;;10.60;8.20;;;10.30;35.40;;;;;;5123165;28;20019;-77
2022/03/10 12:20:55;;;;;;;13.05;9.50;;;10.40;36.10;;;;;;5117654;28;20129;-78
2022/03/10 12:23:23;;;;;;;;;;;10.40;36.20;;;;;;5116545;28;20038;-77
2022/03/10 12:26:02;;;;;;;12.48;8.55;;;10.50;37.00;;;;;;5114960;28;19904;-77
2022/03/10 12:28:33;;;;;;;11.95;9.48;;;10.60;37.50;;;;;;5114338;28;20015;-77
2022/03/10 12:31:29;;;;;;;14.40;10.50;;;10.60;36.50;;;;;;5114187;28;20023;-77
2022/03/10 12:33:56;;;;;;;12.05;9.20;;;10.60;36.70;;;;;;5100744;28;20047;-78
2022/03/10 12:36:33;;;;;;;15.98;8.75;;;10.50;36.00;;;;;;5112398;28;20054;-79
2022/03/10 12:39:04;;;;;;;11.88;8.75;;;10.50;36.60;;;;;;5112603;28;20035;-78
2022/03/10 12:41:36;;;;;;;15.77;9.07;;;10.40;36.50;;;;;;5113227;28;20028;-78
2022/03/10 12:44:03;;;;;;;14.88;9.50;;;10.40;36.40;;;;;;5113577;28;20123;-77
2022/03/10 12:46:32;;;;;;;15.68;8.18;;;10.30;36.20;;;;;;5111519;28;20020;-78
2022/03/10 12:49:30;;;;;;;11.18;8.20;;;10.30;36.50;;;;;;5113441;28;20034;-78